Airfield :
LOGIN :

Register | Disclaimer

   EN    FR    IT 

 










Legend :    VFR   Marginal VFR   IFR   Intensive IFR   Very Intensive IFR
Visi :
Ceiling :
>= 8 km
>= 3000ft
5 to 8 km
1000 to 3000 ft
1500m to 5 km
500 to 1000 ft
800 to 1500m
200 to 500 ft
< 800m
< 200 ft
Symbols :   Thunderstorms  Fog  Heavy snow  Heavy precipitations  Wind > 20 kt
SIGMETs :     Misc.  Thunderstorms  Icing  Turbulence  Mountain Waves  Volcanic Ashes






- Airport Elevation : 489 ft
- IATA code : GDN


EPGD - Gdansk

CURRENT METAR :
  • 170130Z 20006KT 1100 R29/1600N BR OVC001 13/13 Q1013

EXPIRED METARs :
  • 170100Z 21004KT 190V260 1700 BR OVC001 13/13 Q1012
  • 170030Z 20005KT 0700 R29/1600N FG OVC001 13/13 Q1012
  • 170000Z 17006KT 0450 R29/1300N FG OVC001 14/14 Q1012
  • 162330Z 17004KT 0200 R29/0800U FG VV000 14/14 Q1012
  • 162300Z 18003KT 160V230 0150 R29/0500N FG OVC001 14/14 Q1012
  • 162230Z 15003KT 0200 R29/0500D FG OVC001 14/14 Q1012
  • 162200Z VRB02KT 5000 BR OVC002 14/14 Q1012
  • 162130Z 08003KT 050V110 8000 FEW004 14/14 Q1012
  • 162100Z 11004KT 070V130 CAVOK 14/14 Q1012

TAF TAF EPGD
Valid from the 17 at 00:00 until the 18 at 00:00 UTC


162330Z 1700/1724 VRB03KT 3000 BR BKN005
TEMPO 1700/1705 0800 FG BKN002
PROB40
TEMPO 1700/1704 0100 FG OVC001
BECMG 1704/1707 22010KT CAVOK
TEMPO 1711/1722 -SHRA SCT045CB
PROB40
TEMPO 1713/1718 VRB15G30KT 4000 TSRA BKN025CB
BECMG 1716/1719 VRB02KT



MET'MAP, your aeronautical weather chart ! - Copyright ORBIFLY December 2007 - Disclaimer

ORBIFLY MET'MAP TEAM :

Programming & Development : Alexandra Zaïnal
Original concept : Baudouin d'Aumeries
Technical & hardware support : Manuel Goepfert
Assistance : Marc-Olivier Méhu




SOURCES & CREDITS :

   NOAA